Time;durP1;ratioP1;P1;durP2;ratioP2;P2;SDS_P1;SDS_P2;PMS_P1;PMS_P2;Temp;Humidity;BMP_temperature;BMP_pressure;BME280_temperature;BME280_humidity;BME280_pressure;Samples;Min_cycle;Max_cycle;Signal;HPM_P1;HPM_P2
2022/08/20 00:01:01;;;;;;;12.52;8.88;;;19.00;99.90;;;;;;5018358;28;20489;-87
2022/08/20 00:03:34;;;;;;;12.15;9.15;;;19.10;99.90;;;;;;5029019;28;20164;-88
2022/08/20 00:06:05;;;;;;;13.00;9.38;;;19.00;99.90;;;;;;4987770;28;20125;-86
2022/08/20 00:08:32;;;;;;;11.90;8.88;;;19.00;99.90;;;;;;5002854;28;20416;-88
2022/08/20 00:11:01;;;;;;;13.10;9.70;;;18.80;99.90;;;;;;5008785;28;20033;-88
2022/08/20 00:13:42;;;;;;;17.17;10.05;;;18.80;99.90;;;;;;5009600;28;20053;-88
2022/08/20 00:16:10;;;;;;;11.50;8.82;;;18.70;99.90;;;;;;4989727;28;20378;-89
2022/08/20 00:18:36;;;;;;;16.35;10.27;;;18.80;99.90;;;;;;5009744;28;20040;-87
2022/08/20 00:21:06;;;;;;;12.85;10.13;;;18.70;99.90;;;;;;4987138;28;20110;-87
2022/08/20 00:23:36;;;;;;;14.23;9.23;;;18.70;99.90;;;;;;4991561;28;20142;-88
2022/08/20 00:26:07;;;;;;;19.45;9.38;;;18.80;99.90;;;;;;5003941;28;20113;-87
2022/08/20 00:28:33;;;;;;;14.52;9.25;;;18.80;99.90;;;;;;4992852;28;20128;-88
2022/08/20 00:30:58;;;;;;;14.32;9.52;;;18.60;99.90;;;;;;5015252;28;20077;-87
2022/08/20 00:33:24;;;;;;;13.95;8.98;;;18.70;99.90;;;;;;4984953;28;20058;-87
2022/08/20 00:35:55;;;;;;;14.80;8.95;;;18.70;99.90;;;;;;5019503;28;20150;-87
2022/08/20 00:38:21;;;;;;;12.85;8.52;;;18.80;99.90;;;;;;5009858;28;20062;-87
2022/08/20 00:40:55;;;;;;;16.02;9.35;;;18.70;99.90;;;;;;4993384;28;20038;-88
2022/08/20 00:43:36;;;;;;;13.68;8.75;;;18.60;99.90;;;;;;4999111;28;20149;-88
2022/08/20 00:46:10;;;;;;;15.10;8.68;;;18.70;99.90;;;;;;5009162;28;20340;-87
2022/08/20 00:48:41;;;;;;;13.93;8.43;;;18.80;99.90;;;;;;4993488;28;20480;-87
2022/08/20 00:51:32;;;;;;;14.95;8.10;;;18.60;99.90;;;;;;4999640;28;20124;-87
2022/08/20 00:54:13;;;;;;;14.18;9.15;;;18.70;99.90;;;;;;5012398;28;20040;-88
2022/08/20 00:56:39;;;;;;;15.18;8.40;;;18.40;99.90;;;;;;4993781;28;20399;-88
2022/08/20 00:59:11;;;;;;;15.50;8.57;;;18.60;99.90;;;;;;4999133;28;20623;-88
2022/08/20 01:01:39;;;;;;;20.55;8.45;;;18.40;99.90;;;;;;5012056;28;20100;-88
2022/08/20 01:04:05;;;;;;;16.75;8.85;;;18.40;99.90;;;;;;5020030;28;20117;-88
2022/08/20 01:06:31;;;;;;;12.65;8.88;;;18.40;99.90;;;;;;5006246;28;20200;-87
2022/08/20 01:09:00;;;;;;;18.52;8.38;;;18.30;99.90;;;;;;4992600;28;20440;-87
2022/08/20 01:11:34;;;;;;;15.48;8.90;;;18.30;99.90;;;;;;5012226;28;20409;-88
2022/08/20 01:14:18;;;;;;;15.80;8.70;;;18.60;99.90;;;;;;5005280;28;20661;-88
2022/08/20 01:16:47;;;;;;;13.93;8.30;;;18.50;99.90;;;;;;5018461;28;20030;-87
2022/08/20 01:19:15;;;;;;;13.40;7.57;;;18.50;99.90;;;;;;5026498;28;20046;-87
2022/08/20 01:21:42;;;;;;;15.02;8.80;;;18.30;99.90;;;;;;5032089;28;20321;-89
2022/08/20 01:24:15;;;;;;;14.00;8.75;;;18.40;99.90;;;;;;5035194;28;21009;-88
2022/08/20 01:26:44;;;;;;;15.10;8.93;;;18.50;99.90;;;;;;5005405;28;20056;-87
2022/08/20 01:29:15;;;;;;;15.43;8.27;;;18.20;99.90;;;;;;4992551;28;20037;-88
2022/08/20 01:31:42;;;;;;;15.00;7.88;;;18.20;99.90;;;;;;5017310;28;20060;-88
2022/08/20 01:34:11;;;;;;;12.02;8.05;;;18.30;99.90;;;;;;4990050;28;20096;-89
2022/08/20 01:36:39;;;;;;;13.00;8.18;;;18.30;99.90;;;;;;5015769;28;20465;-88
2022/08/20 01:39:09;;;;;;;16.55;9.25;;;18.10;99.90;;;;;;5017936;28;20048;-86
2022/08/20 01:41:52;;;;;;;15.82;9.00;;;18.10;99.90;;;;;;5003919;28;20049;-88
2022/08/20 01:44:20;;;;;;;14.77;9.55;;;18.00;99.90;;;;;;5012181;28;20033;-89
2022/08/20 01:46:47;;;;;;;16.85;8.75;;;18.10;99.90;;;;;;5008537;28;20038;-88
2022/08/20 01:49:21;;;;;;;14.02;9.35;;;18.00;99.90;;;;;;5014754;28;20073;-87
2022/08/20 01:51:48;;;;;;;16.50;9.43;;;18.00;99.90;;;;;;5006739;28;20311;-88
2022/08/20 01:54:14;;;;;;;16.63;8.95;;;17.90;99.90;;;;;;5013813;28;20045;-88
2022/08/20 01:57:11;;;;;;;16.55;9.23;;;18.00;99.90;;;;;;4990244;28;20185;-88
2022/08/20 01:59:37;;;;;;;18.45;8.93;;;17.90;99.90;;;;;;5007514;28;20406;-89
2022/08/20 02:02:03;;;;;;;14.25;9.05;;;18.00;99.90;;;;;;5031586;28;20108;-89
2022/08/20 02:04:29;;;;;;;14.02;8.85;;;17.90;99.90;;;;;;5006094;28;20077;-90
2022/08/20 02:06:58;;;;;;;17.42;8.95;;;17.90;99.90;;;;;;5008373;28;20045;-88
2022/08/20 02:09:45;;;;;;;15.65;8.38;;;17.80;99.90;;;;;;4993271;28;20488;-88
2022/08/20 02:12:13;;;;;;;10.13;6.78;;;18.00;99.90;;;;;;5009063;28;20038;-90
2022/08/20 02:14:42;;;;;;;16.10;9.15;;;17.80;99.90;;;;;;5008370;28;20077;-89
2022/08/20 02:17:09;;;;;;;12.52;8.63;;;17.90;99.90;;;;;;5012606;28;20045;-89
2022/08/20 02:19:39;;;;;;;12.48;7.88;;;17.70;99.90;;;;;;5004532;28;22186;-88
2022/08/20 02:22:22;;;;;;;18.35;8.85;;;17.80;99.90;;;;;;5011831;28;20041;-88
2022/08/20 02:24:47;;;;;;;18.67;9.05;;;17.90;99.90;;;;;;5004795;28;20223;-88
2022/08/20 02:27:13;;;;;;;14.13;8.32;;;17.80;99.90;;;;;;5007646;28;20026;-90
2022/08/20 02:29:42;;;;;;;16.90;8.85;;;17.90;99.90;;;;;;5010870;28;20037;-87
2022/08/20 02:32:08;;;;;;;14.40;8.55;;;17.70;99.90;;;;;;5007801;28;20056;-89
2022/08/20 02:34:34;;;;;;;11.05;8.13;;;17.70;99.90;;;;;;5029395;28;20037;-90
2022/08/20 02:37:02;;;;;;;114.45;10.02;;;17.50;99.90;;;;;;5012807;28;20037;-89
2022/08/20 02:39:27;;;;;;;43.92;5.95;;;17.40;99.90;;;;;;4990514;28;20161;-89
2022/08/20 02:41:53;;;;;;;144.90;12.25;;;17.30;99.90;;;;;;5000425;28;20128;-88
2022/08/20 02:44:20;;;;;;;9.95;6.45;;;17.40;99.90;;;;;;4991015;28;20042;-89
2022/08/20 02:46:48;;;;;;;39.35;8.05;;;17.30;99.90;;;;;;5011142;28;20314;-89
2022/08/20 02:49:16;;;;;;;15.05;9.70;;;17.50;99.90;;;;;;5027693;28;20482;-87
2022/08/20 02:51:43;;;;;;;17.30;9.52;;;17.50;99.90;;;;;;5025747;28;20525;-89
2022/08/20 02:54:09;;;;;;;15.23;9.18;;;17.50;99.90;;;;;;4994546;28;20253;-89
2022/08/20 02:56:35;;;;;;;16.80;9.63;;;17.40;99.90;;;;;;5014244;28;20038;-89
2022/08/20 02:59:01;;;;;;;21.23;9.48;;;17.50;99.90;;;;;;4991884;28;20045;-90
2022/08/20 03:01:27;;;;;;;15.95;8.93;;;17.30;99.90;;;;;;5032171;28;20068;-88
2022/08/20 03:03:55;;;;;;;13.57;9.50;;;17.60;99.90;;;;;;5031746;28;20053;-89
2022/08/20 03:06:22;;;;;;;16.65;8.48;;;17.40;99.90;;;;;;4997705;28;20072;-90
2022/08/20 03:08:48;;;;;;;18.60;10.75;;;17.30;99.90;;;;;;4992547;28;20113;-89
2022/08/20 03:11:15;;;;;;;15.73;9.15;;;17.30;99.90;;;;;;5032606;28;20038;-89
2022/08/20 03:13:40;;;;;;;14.45;9.25;;;17.40;99.90;;;;;;4990840;28;20087;-90
2022/08/20 03:16:06;;;;;;;17.08;9.90;;;17.40;99.90;;;;;;5014667;28;20444;-91
2022/08/20 03:18:39;;;;;;;19.35;9.40;;;17.40;99.90;;;;;;4993498;28;20072;-89
2022/08/20 03:21:07;;;;;;;13.25;8.55;;;17.30;99.90;;;;;;5031634;28;20048;-90
2022/08/20 03:23:33;;;;;;;13.27;8.55;;;17.50;99.90;;;;;;5004796;28;20203;-91
2022/08/20 03:25:59;;;;;;;15.18;8.38;;;17.30;99.90;;;;;;5016528;28;20038;-89
2022/08/20 03:28:26;;;;;;;16.95;8.98;;;17.20;99.90;;;;;;4991021;28;20117;-89
2022/08/20 03:30:52;;;;;;;14.27;8.50;;;17.40;99.90;;;;;;4991504;28;20241;-89
2022/08/20 03:33:19;;;;;;;14.65;7.53;;;17.20;99.90;;;;;;5031457;28;20042;-90
2022/08/20 03:35:45;;;;;;;12.70;7.28;;;17.20;99.90;;;;;;4999804;28;20239;-90
2022/08/20 03:38:15;;;;;;;12.07;7.13;;;17.20;99.90;;;;;;4992767;28;20101;-90
2022/08/20 03:40:44;;;;;;;13.27;6.80;;;17.30;99.90;;;;;;4992305;28;20099;-91
2022/08/20 03:43:11;;;;;;;16.88;6.97;;;17.30;99.90;;;;;;4992644;28;20046;-89
2022/08/20 03:45:40;;;;;;;11.00;6.20;;;17.20;99.90;;;;;;5010386;28;20472;-89
2022/08/20 03:48:07;;;;;;;11.55;6.90;;;17.10;99.90;;;;;;5007390;28;20489;-90
2022/08/20 03:50:33;;;;;;;12.15;6.28;;;17.00;99.90;;;;;;4991115;28;20041;-91
2022/08/20 03:53:00;;;;;;;11.40;6.20;;;16.90;99.90;;;;;;5007187;28;20049;-90
2022/08/20 03:55:28;;;;;;;9.68;6.97;;;17.00;99.90;;;;;;4991750;28;20052;-90
2022/08/20 03:57:59;;;;;;;13.90;7.95;;;17.00;99.90;;;;;;5010789;28;20397;-89
2022/08/20 04:00:32;;;;;;;12.70;7.25;;;17.00;99.90;;;;;;5034497;28;20358;-90
2022/08/20 04:02:59;;;;;;;11.32;7.35;;;17.10;99.90;;;;;;5031396;28;20370;-90
2022/08/20 04:05:27;;;;;;;14.88;7.80;;;17.10;99.90;;;;;;4992124;28;20113;-89
2022/08/20 04:07:53;;;;;;;13.63;8.05;;;17.00;99.90;;;;;;4990001;28;20053;-89
2022/08/20 04:10:19;;;;;;;12.60;8.07;;;16.90;99.90;;;;;;5008797;28;20084;-90
2022/08/20 04:12:45;;;;;;;17.35;7.88;;;16.80;99.90;;;;;;5031787;28;20101;-90
2022/08/20 04:15:14;;;;;;;14.63;7.57;;;16.90;99.90;;;;;;5030301;28;20037;-89
2022/08/20 04:17:42;;;;;;;11.05;7.68;;;16.70;99.90;;;;;;5020589;28;20034;-90
2022/08/20 04:20:09;;;;;;;11.65;7.30;;;16.70;99.90;;;;;;5016803;28;20037;-89
2022/08/20 04:22:35;;;;;;;12.52;6.63;;;16.80;99.90;;;;;;4991791;28;20045;-91
2022/08/20 04:25:07;;;;;;;14.50;7.13;;;16.80;99.90;;;;;;5015145;28;20041;-90
2022/08/20 04:27:36;;;;;;;;;;;16.60;99.90;;;;;;5018852;28;20456;-90
2022/08/20 04:30:09;;;;;;;14.80;6.82;;;16.80;99.90;;;;;;5011126;28;19933;-89
2022/08/20 04:32:38;;;;;;;12.50;6.75;;;16.80;99.90;;;;;;4998290;28;21011;-88
2022/08/20 04:35:06;;;;;;;10.70;6.20;;;16.80;99.90;;;;;;5008574;28;20150;-89
2022/08/20 04:37:32;;;;;;;14.80;6.72;;;16.70;99.90;;;;;;4995040;28;20626;-90
2022/08/20 04:42:50;;;;;;;16.58;6.78;;;16.50;99.90;;;;;;5013257;28;20046;-90
2022/08/20 04:45:17;;;;;;;13.45;6.40;;;16.60;99.90;;;;;;5026781;28;20219;-89
2022/08/20 04:47:43;;;;;;;11.45;6.32;;;16.50;99.90;;;;;;5035790;28;20072;-90
2022/08/20 04:50:10;;;;;;;11.90;7.03;;;16.50;99.90;;;;;;5009788;28;20069;-89
2022/08/20 04:52:36;;;;;;;8.95;5.72;;;16.50;99.90;;;;;;5015508;28;20053;-89
2022/08/20 04:55:03;;;;;;;12.88;5.47;;;16.50;99.90;;;;;;5015728;28;20082;-89
2022/08/20 04:57:29;;;;;;;12.93;5.63;;;16.40;99.90;;;;;;4994116;28;20042;-89
2022/08/20 04:59:54;;;;;;;9.93;4.50;;;16.50;99.90;;;;;;4996744;28;20514;-88
2022/08/20 05:02:21;;;;;;;10.32;4.65;;;16.50;99.90;;;;;;5022163;28;20588;-90
2022/08/20 05:04:47;;;;;;;8.52;5.00;;;16.50;99.90;;;;;;5011884;28;20045;-89
2022/08/20 05:07:15;;;;;;;10.18;5.90;;;16.50;99.90;;;;;;5008750;28;20482;-89
2022/08/20 05:09:41;;;;;;;13.18;6.43;;;16.50;99.90;;;;;;5007903;28;20049;-89
2022/08/20 05:12:07;;;;;;;13.48;6.05;;;16.50;99.90;;;;;;4992857;28;20033;-89
2022/08/20 05:14:33;;;;;;;12.13;5.80;;;16.50;99.90;;;;;;5006280;28;20029;-88
2022/08/20 05:17:05;;;;;;;11.93;5.70;;;16.50;99.90;;;;;;5010041;28;20443;-89
2022/08/20 05:19:34;;;;;;;12.02;6.40;;;16.40;99.90;;;;;;5022980;28;20045;-89
2022/08/20 05:22:00;;;;;;;11.43;5.70;;;16.20;99.90;;;;;;5010664;28;20049;-90
2022/08/20 05:24:26;;;;;;;11.70;6.50;;;16.30;99.90;;;;;;5015873;28;20107;-89
2022/08/20 05:26:54;;;;;;;10.13;6.13;;;16.10;99.90;;;;;;5026168;28;20450;-91
2022/08/20 05:29:22;;;;;;;11.65;6.07;;;16.10;99.90;;;;;;5012572;28;20077;-89
2022/08/20 05:31:51;;;;;;;12.70;6.18;;;16.20;99.90;;;;;;5032479;28;20052;-88
2022/08/20 05:34:16;;;;;;;13.15;6.18;;;16.20;99.90;;;;;;4994609;28;20045;-90
2022/08/20 05:36:46;;;;;;;10.35;5.57;;;16.20;99.90;;;;;;4989416;28;20044;-89
2022/08/20 05:39:12;;;;;;;14.95;6.40;;;16.30;99.90;;;;;;4992350;28;20102;-90
2022/08/20 05:41:39;;;;;;;10.70;6.13;;;16.10;99.90;;;;;;5009721;28;20045;-88
2022/08/20 05:44:09;;;;;;;11.30;6.55;;;16.10;99.90;;;;;;4990817;28;20442;-89
2022/08/20 05:46:39;;;;;;;13.40;6.15;;;16.20;99.90;;;;;;5016423;28;20093;-89
2022/08/20 05:49:15;;;;;;;11.90;6.88;;;16.40;99.90;;;;;;5009257;28;20409;-88
2022/08/20 05:51:42;;;;;;;16.55;6.60;;;16.40;99.90;;;;;;5032603;28;20069;-89
2022/08/20 05:54:08;;;;;;;11.98;6.63;;;16.40;99.90;;;;;;5016578;28;20041;-89
2022/08/20 05:56:35;;;;;;;13.48;6.10;;;16.60;99.90;;;;;;5027793;28;20129;-90
2022/08/20 05:59:03;;;;;;;11.52;5.75;;;16.60;99.90;;;;;;5009659;28;20505;-90
2022/08/20 06:01:31;;;;;;;12.20;5.45;;;16.80;99.90;;;;;;5010578;28;20170;-90
2022/08/20 06:06:41;;;;;;;12.67;5.27;;;16.80;99.90;;;;;;5009969;28;20304;-89
2022/08/20 06:09:07;;;;;;;10.68;5.03;;;16.90;99.90;;;;;;4996001;28;20296;-88
2022/08/20 06:11:32;;;;;;;19.05;5.30;;;17.10;99.90;;;;;;4995706;28;20116;-91
2022/08/20 06:13:58;;;;;;;7.90;5.00;;;17.20;99.90;;;;;;5009804;28;20034;-90
2022/08/20 06:16:24;;;;;;;8.82;4.82;;;17.20;99.90;;;;;;5006981;28;20061;-89
2022/08/20 06:18:50;;;;;;;9.70;4.38;;;17.20;99.90;;;;;;5014550;28;20052;-89
2022/08/20 06:21:15;;;;;;;10.43;4.95;;;17.10;1.00;;;;;;5008154;28;20501;-89
2022/08/20 06:23:41;;;;;;;13.77;4.43;;;17.10;1.00;;;;;;5009337;28;20033;-89
2022/08/20 06:26:08;;;;;;;13.50;4.45;;;17.20;1.00;;;;;;5008310;28;20414;-88
2022/08/20 06:28:34;;;;;;;15.25;4.88;;;17.40;99.90;;;;;;4986986;28;20521;-89
2022/08/20 06:31:00;;;;;;;12.95;4.60;;;17.40;99.90;;;;;;5031265;28;20489;-90
2022/08/20 06:33:26;;;;;;;8.75;4.30;;;17.50;99.90;;;;;;5050673;28;20041;-89
2022/08/20 06:35:52;;;;;;;10.60;4.13;;;17.70;99.90;;;;;;5009648;28;20615;-89
2022/08/20 06:38:19;;;;;;;10.10;4.05;;;17.70;99.90;;;;;;5036669;28;20045;-89
2022/08/20 06:40:44;;;;;;;12.45;4.32;;;17.80;99.90;;;;;;5026036;28;20128;-88
2022/08/20 06:43:10;;;;;;;10.02;4.28;;;17.70;96.40;;;;;;5013099;28;20359;-88
2022/08/20 06:45:37;;;;;;;7.18;3.95;;;18.00;99.90;;;;;;4994338;28;20042;-88
2022/08/20 06:48:10;;;;;;;12.85;4.20;;;18.00;99.90;;;;;;4994231;28;20040;-89
2022/08/20 06:50:41;;;;;;;10.95;3.67;;;18.00;99.90;;;;;;5012533;28;20034;-88
2022/08/20 06:53:12;;;;;;;10.95;3.55;;;18.00;1.00;;;;;;5013966;28;20041;-88
2022/08/20 06:55:41;;;;;;;8.45;3.38;;;18.00;99.90;;;;;;5005231;28;20049;-89
2022/08/20 06:58:09;;;;;;;7.28;3.20;;;18.20;99.90;;;;;;5008491;28;20037;-88
2022/08/20 07:00:38;;;;;;;10.23;3.50;;;18.10;4.70;;;;;;5007332;28;20053;-88
2022/08/20 07:03:03;;;;;;;9.55;2.60;;;18.00;99.90;;;;;;4992505;28;20155;-88
2022/08/20 07:05:32;;;;;;;6.38;2.38;;;18.30;1.00;;;;;;5016385;28;20105;-88
2022/08/20 07:07:58;;;;;;;8.73;2.42;;;18.40;1.00;;;;;;5016172;28;20042;-88
2022/08/20 07:10:24;;;;;;;8.52;2.55;;;18.50;1.00;;;;;;5008826;28;20501;-89
2022/08/20 07:12:50;;;;;;;7.30;2.25;;;18.40;56.40;;;;;;5015724;28;20053;-88
2022/08/20 07:15:21;;;;;;;6.28;2.17;;;18.60;99.90;;;;;;5016865;28;20478;-89
2022/08/20 07:17:59;;;;;;;15.32;2.80;;;18.70;34.90;;;;;;4988974;28;20045;-88
2022/08/20 07:20:26;;;;;;;7.88;2.80;;;18.70;43.70;;;;;;5026871;28;20042;-88
2022/08/20 07:22:51;;;;;;;9.45;2.50;;;18.80;1.00;;;;;;5012259;28;20049;-87
2022/08/20 07:25:19;;;;;;;10.23;2.22;;;18.80;99.90;;;;;;4991216;28;20034;-88
2022/08/20 07:27:46;;;;;;;5.47;1.80;;;18.90;1.00;;;;;;5003022;28;20033;-89
2022/08/20 07:32:59;;;;;;;7.25;1.80;;;18.80;1.00;;;;;;5006213;28;20203;-88
2022/08/20 07:35:26;;;;;;;5.25;1.90;;;18.90;99.90;;;;;;5033941;28;20171;-88
2022/08/20 07:37:53;;;;;;;8.60;1.73;;;18.90;99.90;;;;;;5022733;28;20458;-88
2022/08/20 07:40:29;;;;;;;10.02;1.90;;;18.70;13.00;;;;;;5013673;28;20137;-88
2022/08/20 07:42:56;;;;;;;6.53;1.80;;;18.60;99.90;;;;;;5029262;28;20050;-88
2022/08/20 07:45:22;;;;;;;6.18;1.80;;;18.60;99.90;;;;;;5024349;28;20064;-88
2022/08/20 07:47:52;;;;;;;5.35;1.90;;;18.70;99.90;;;;;;5024557;28;20518;-88
2022/08/20 07:50:20;;;;;;;5.93;1.58;;;18.80;1.00;;;;;;4990099;28;20061;-89
2022/08/20 07:52:47;;;;;;;5.30;1.75;;;18.90;99.90;;;;;;4988563;28;20045;-88
2022/08/20 07:55:15;;;;;;;6.50;1.98;;;18.90;99.90;;;;;;5010829;28;20049;-87
2022/08/20 07:57:42;;;;;;;5.57;2.50;;;19.10;35.80;;;;;;4990308;28;20488;-87
2022/08/20 08:00:11;;;;;;;7.75;1.98;;;19.30;99.90;;;;;;4989552;28;20344;-89
2022/08/20 08:02:36;;;;;;;6.38;1.90;;;19.40;99.90;;;;;;5026382;28;20128;-88
2022/08/20 08:05:04;;;;;;;6.45;2.03;;;19.50;2.60;;;;;;5009813;28;20113;-88
2022/08/20 08:07:31;;;;;;;6.97;1.77;;;19.60;1.00;;;;;;4992380;28;20057;-88
2022/08/20 08:09:58;;;;;;;4.70;1.67;;;19.60;99.90;;;;;;5030873;28;20037;-87
2022/08/20 08:12:33;;;;;;;5.82;2.25;;;19.70;1.00;;;;;;5008248;28;20064;-87
2022/08/20 08:14:58;;;;;;;6.40;1.23;;;19.70;1.00;;;;;;5008307;28;20108;-88
2022/08/20 08:17:24;;;;;;;5.15;1.42;;;19.70;1.00;;;;;;4992582;28;20037;-89
2022/08/20 08:19:50;;;;;;;4.97;1.20;;;19.80;99.90;;;;;;5012371;28;20088;-88
2022/08/20 08:22:18;;;;;;;7.32;1.52;;;19.70;99.90;;;;;;5005434;28;20857;-87
2022/08/20 08:24:47;;;;;;;6.05;1.60;;;19.90;10.50;;;;;;5017573;28;20332;-88
2022/08/20 08:27:17;;;;;;;9.30;1.75;;;19.90;1.00;;;;;;5006427;28;20037;-87
2022/08/20 08:29:43;;;;;;;4.15;1.10;;;20.00;1.00;;;;;;5005863;28;20045;-87
2022/08/20 08:32:09;;;;;;;6.53;1.52;;;19.80;99.90;;;;;;5018342;28;20091;-87
2022/08/20 08:34:36;;;;;;;3.72;1.05;;;20.10;99.90;;;;;;5020898;28;20131;-88
2022/08/20 08:37:04;;;;;;;4.53;1.70;;;20.10;99.90;;;;;;4989994;28;20034;-87
2022/08/20 08:39:31;;;;;;;6.05;1.20;;;20.20;99.90;;;;;;5028867;28;20112;-88
2022/08/20 08:42:01;;;;;;;4.57;1.35;;;20.20;99.90;;;;;;4990106;28;20050;-88
2022/08/20 08:44:33;;;;;;;6.07;1.38;;;20.30;99.90;;;;;;5037918;28;20485;-88
2022/08/20 08:47:12;;;;;;;5.68;1.10;;;20.30;99.90;;;;;;4989128;28;20397;-87
2022/08/20 08:49:38;;;;;;;4.85;1.40;;;20.40;99.90;;;;;;4986878;28;20640;-86
2022/08/20 08:52:27;;;;;;;5.43;1.35;;;20.50;99.90;;;;;;5028851;28;20073;-86
2022/08/20 08:54:58;;;;;;;5.10;1.23;;;20.60;1.00;;;;;;5003675;28;20409;-87
2022/08/20 08:57:27;;;;;;;3.08;1.00;;;20.70;44.60;;;;;;5011317;28;20049;-86
2022/08/20 09:00:13;;;;;;;6.15;1.13;;;20.80;35.70;;;;;;4989502;28;20073;-87
2022/08/20 09:02:41;;;;;;;5.63;1.17;;;20.80;1.00;;;;;;4987646;28;20065;-86
2022/08/20 09:05:16;;;;;;;3.67;1.00;;;20.80;1.00;;;;;;4990856;28;20041;-87
2022/08/20 09:07:47;;;;;;;3.20;1.10;;;20.80;97.10;;;;;;5013808;28;20045;-88
2022/08/20 09:10:13;;;;;;;3.58;1.20;;;20.80;63.30;;;;;;5012376;28;20612;-87
2022/08/20 09:12:39;;;;;;;3.58;1.38;;;20.80;1.00;;;;;;5008434;28;20054;-86
2022/08/20 09:15:05;;;;;;;6.25;1.30;;;20.90;1.00;;;;;;5030499;28;20038;-87
2022/08/20 09:17:30;;;;;;;7.28;1.67;;;21.10;1.00;;;;;;4989729;28;20045;-87
2022/08/20 09:19:56;;;;;;;6.15;1.30;;;20.90;1.00;;;;;;4992948;28;20053;-86
2022/08/20 09:22:24;;;;;;;6.55;1.48;;;21.00;1.00;;;;;;4992141;28;20076;-87
2022/08/20 09:24:50;;;;;;;5.32;1.60;;;21.10;1.00;;;;;;4991802;28;20038;-87
2022/08/20 09:27:19;;;;;;;3.30;1.20;;;21.20;1.00;;;;;;5023826;28;20042;-87
2022/08/20 09:29:45;;;;;;;4.75;1.35;;;21.40;1.00;;;;;;5023784;28;20046;-87
2022/08/20 09:32:15;;;;;;;5.15;1.70;;;21.40;99.90;;;;;;5007962;28;20037;-87
2022/08/20 09:34:43;;;;;;;5.10;1.42;;;21.60;1.00;;;;;;4989975;28;20046;-86
2022/08/20 09:37:10;;;;;;;2.63;1.20;;;21.80;1.00;;;;;;5014514;28;20037;-86
2022/08/20 09:39:36;;;;;;;5.90;1.63;;;21.90;99.90;;;;;;5020496;28;21009;-86
2022/08/20 09:42:14;;;;;;;6.18;1.60;;;22.20;99.90;;;;;;4994856;28;20099;-87
2022/08/20 09:44:40;;;;;;;8.15;1.58;;;22.10;99.90;;;;;;4990931;28;20045;-86
2022/08/20 09:47:06;;;;;;;6.80;1.67;;;21.70;99.90;;;;;;5053336;28;20414;-88
2022/08/20 09:49:32;;;;;;;6.35;1.48;;;21.60;99.90;;;;;;5013795;28;20707;-87
2022/08/20 09:52:00;;;;;;;4.03;1.17;;;21.20;99.90;;;;;;5037354;28;20449;-87
2022/08/20 09:54:36;;;;;;;5.35;1.27;;;21.40;99.90;;;;;;5002480;28;20034;-86
2022/08/20 09:57:05;;;;;;;5.78;1.40;;;21.70;99.90;;;;;;4994635;28;20033;-86
2022/08/20 09:59:32;;;;;;;4.43;1.17;;;22.20;99.90;;;;;;4987757;28;20034;-87
2022/08/20 10:01:58;;;;;;;3.50;1.13;;;22.40;99.90;;;;;;5024801;28;20052;-86
2022/08/20 10:04:24;;;;;;;2.92;1.10;;;22.60;99.90;;;;;;5013366;28;20045;-87
2022/08/20 10:06:49;;;;;;;5.03;1.42;;;22.90;99.90;;;;;;5005391;28;20369;-87
2022/08/20 10:09:15;;;;;;;3.10;1.25;;;22.90;99.90;;;;;;4986645;28;20076;-87
2022/08/20 10:11:41;;;;;;;4.13;1.40;;;23.00;99.90;;;;;;5031257;28;20041;-87
2022/08/20 10:14:08;;;;;;;6.40;1.52;;;22.90;99.90;;;;;;5038712;28;20378;-86
2022/08/20 10:16:34;;;;;;;3.88;1.30;;;22.40;99.90;;;;;;4997830;28;20029;-88
2022/08/20 10:19:04;;;;;;;3.95;1.40;;;22.50;99.90;;;;;;5028863;28;20046;-88
2022/08/20 10:21:32;;;;;;;4.78;1.40;;;22.60;99.90;;;;;;5015242;28;20048;-87
2022/08/20 10:23:58;;;;;;;5.70;1.40;;;23.10;99.90;;;;;;5011383;28;20092;-87
2022/08/20 10:26:24;;;;;;;3.58;1.38;;;22.70;99.90;;;;;;5007712;28;20037;-88
2022/08/20 10:28:50;;;;;;;7.03;1.33;;;22.30;99.90;;;;;;5029800;28;20046;-85
2022/08/20 10:31:16;;;;;;;3.47;1.23;;;23.00;99.90;;;;;;5020782;28;20433;-85
2022/08/20 10:33:42;;;;;;;5.63;1.45;;;23.40;99.90;;;;;;5006578;28;20524;-87
2022/08/20 10:36:10;;;;;;;7.10;1.83;;;24.00;99.90;;;;;;4991872;28;20566;-87
2022/08/20 10:38:35;;;;;;;3.08;1.20;;;24.00;99.90;;;;;;5024979;28;20049;-86
2022/08/20 10:41:01;;;;;;;5.93;1.35;;;23.80;99.90;;;;;;5007341;28;20401;-87
2022/08/20 10:43:27;;;;;;;4.30;1.25;;;23.40;99.90;;;;;;5004381;28;20041;-87
2022/08/20 10:45:53;;;;;;;5.13;1.73;;;23.60;99.90;;;;;;5005980;28;20033;-87
2022/08/20 10:48:19;;;;;;;4.15;1.40;;;23.00;99.90;;;;;;5011202;28;20030;-86
2022/08/20 10:50:44;;;;;;;5.32;1.52;;;23.10;99.90;;;;;;5031302;28;20115;-86
2022/08/20 10:53:11;;;;;;;4.75;1.60;;;22.60;99.90;;;;;;4990567;28;20175;-87
2022/08/20 10:55:38;;;;;;;4.63;1.50;;;22.40;99.90;;;;;;5022506;28;20061;-87
2022/08/20 10:58:07;;;;;;;4.97;1.80;;;22.70;99.90;;;;;;4993671;28;20053;-87
2022/08/20 11:00:34;;;;;;;5.07;1.38;;;23.20;99.90;;;;;;5008870;28;20389;-86
2022/08/20 11:03:01;;;;;;;4.55;1.80;;;23.60;99.90;;;;;;5022931;28;20084;-86
2022/08/20 11:05:27;;;;;;;4.05;1.50;;;23.90;99.90;;;;;;5013491;28;20034;-87
2022/08/20 11:07:58;;;;;;;7.22;1.50;;;23.60;99.90;;;;;;5034462;28;20042;-86
2022/08/20 11:10:27;;;;;;;3.63;1.60;;;24.10;99.90;;;;;;5046091;28;20049;-86
2022/08/20 11:12:56;;;;;;;4.75;1.65;;;23.70;99.90;;;;;;5015818;28;20038;-86
2022/08/20 11:15:22;;;;;;;3.60;1.50;;;24.20;99.90;;;;;;5000376;28;20042;-86
2022/08/20 11:17:47;;;;;;;3.70;1.60;;;24.00;99.90;;;;;;4992539;28;20046;-86
2022/08/20 11:20:16;;;;;;;3.97;1.50;;;23.80;99.90;;;;;;5006007;28;20042;-87
2022/08/20 11:22:41;;;;;;;5.10;1.75;;;23.70;99.90;;;;;;4984917;28;20046;-87
2022/08/20 11:25:08;;;;;;;4.28;1.52;;;24.10;99.90;;;;;;4992096;28;20470;-86
2022/08/20 11:27:38;;;;;;;4.13;1.40;;;23.70;99.90;;;;;;5008728;28;20083;-86
2022/08/20 11:30:07;;;;;;;3.42;1.40;;;23.80;99.90;;;;;;5009200;28;20501;-88
2022/08/20 11:32:32;;;;;;;4.95;1.60;;;24.40;99.90;;;;;;5032024;28;20556;-85
2022/08/20 11:34:58;;;;;;;5.07;1.60;;;24.70;99.90;;;;;;5038255;28;20049;-86
2022/08/20 11:37:25;;;;;;;6.00;1.60;;;24.20;99.90;;;;;;4987786;28;20048;-86
2022/08/20 11:39:51;;;;;;;3.42;1.73;;;23.90;99.90;;;;;;5036296;28;20574;-86
2022/08/20 11:42:17;;;;;;;5.25;1.70;;;24.70;99.90;;;;;;5001801;28;20512;-86
2022/08/20 11:44:43;;;;;;;5.68;1.58;;;24.70;99.90;;;;;;5048198;28;20070;-85
2022/08/20 11:47:24;;;;;;;4.78;1.67;;;24.90;99.90;;;;;;5024933;28;20101;-86
2022/08/20 11:49:58;;;;;;;6.22;1.60;;;25.30;97.70;;;;;;4978610;28;20811;-85
2022/08/20 11:52:25;;;;;;;4.85;1.63;;;25.00;99.90;;;;;;5003491;28;20050;-86
2022/08/20 11:54:50;;;;;;;4.43;1.52;;;24.60;94.10;;;;;;5028512;28;20041;-86
2022/08/20 11:57:24;;;;;;;6.93;1.85;;;24.10;99.90;;;;;;5010288;28;20052;-86
2022/08/20 11:59:51;;;;;;;5.13;1.60;;;24.20;98.60;;;;;;5007904;28;20045;-86
2022/08/20 12:02:17;;;;;;;6.50;1.90;;;24.20;97.10;;;;;;5001952;28;20528;-86
2022/08/20 12:04:44;;;;;;;6.32;1.80;;;24.60;99.90;;;;;;4979754;28;20030;-85
2022/08/20 12:07:11;;;;;;;6.53;1.60;;;24.70;99.90;;;;;;5005675;28;20064;-87
2022/08/20 12:09:37;;;;;;;3.33;1.40;;;24.70;99.90;;;;;;4981749;28;20046;-85
2022/08/20 12:12:04;;;;;;;7.78;1.95;;;24.80;99.90;;;;;;4997878;28;20114;-86
2022/08/20 12:14:29;;;;;;;5.70;1.60;;;25.10;97.00;;;;;;5026033;28;20089;-86
2022/08/20 12:16:55;;;;;;;6.63;2.03;;;24.80;94.90;;;;;;5010680;28;20041;-85
2022/08/20 12:19:21;;;;;;;7.10;1.75;;;24.90;94.60;;;;;;4999898;28;20043;-85
2022/08/20 12:21:46;;;;;;;5.82;1.67;;;25.30;99.90;;;;;;5011000;28;20107;-85
2022/08/20 12:24:12;;;;;;;4.28;1.83;;;25.10;78.70;;;;;;4991289;28;20105;-84
2022/08/20 12:26:38;;;;;;;3.53;1.55;;;24.70;75.10;;;;;;5013978;28;20121;-85
2022/08/20 12:29:03;;;;;;;6.90;2.30;;;25.50;99.90;;;;;;5007323;28;20124;-85
2022/08/20 12:31:29;;;;;;;7.88;1.92;;;25.30;95.70;;;;;;5005990;28;20060;-86
2022/08/20 12:33:55;;;;;;;8.05;2.10;;;25.10;98.40;;;;;;5025311;28;20042;-85
2022/08/20 12:36:22;;;;;;;5.80;1.83;;;25.10;85.80;;;;;;5004718;28;20038;-86
2022/08/20 12:38:47;;;;;;;6.28;1.95;;;25.00;70.20;;;;;;5010979;28;20288;-85
2022/08/20 12:41:13;;;;;;;8.57;2.47;;;24.30;70.10;;;;;;5016177;28;20413;-85
2022/08/20 12:43:39;;;;;;;6.35;1.65;;;24.00;73.80;;;;;;5013203;28;20084;-85
2022/08/20 12:46:04;;;;;;;6.43;1.70;;;23.70;65.60;;;;;;4998887;28;20041;-85
2022/08/20 12:48:30;;;;;;;7.00;1.77;;;23.70;93.40;;;;;;5008065;28;20038;-85
2022/08/20 12:50:56;;;;;;;8.02;2.00;;;23.80;74.60;;;;;;5033985;28;20038;-85
2022/08/20 12:53:22;;;;;;;5.90;1.55;;;24.50;79.30;;;;;;5030786;28;20368;-85
2022/08/20 12:55:47;;;;;;;6.57;1.80;;;24.80;82.60;;;;;;5009782;28;20042;-85